Time;durP1;ratioP1;P1;durP2;ratioP2;P2;SDS_P1;SDS_P2;PMS_P1;PMS_P2;Temp;Humidity;BMP_temperature;BMP_pressure;BME280_temperature;BME280_humidity;BME280_pressure;Samples;Min_cycle;Max_cycle;Signal;HPM_P1;HPM_P2
2023/06/01 00:01:12;;;;;;;2.33;1.63;;;;;;;;;;5032982;28;20228;-46
2023/06/01 00:03:44;;;;;;;3.35;1.98;;;;;;;;;;5033200;28;20201;-48
2023/06/01 00:06:11;;;;;;;3.90;1.75;;;;;;;;;;5032920;28;20208;-47
2023/06/01 00:08:38;;;;;;;4.13;1.90;;;;;;;;;;5036402;28;20209;-48
2023/06/01 00:11:06;;;;;;;4.90;1.90;;;;;;;;;;5036997;28;20231;-47
2023/06/01 00:13:33;;;;;;;5.20;2.15;;;;;;;;;;5036561;28;20727;-46
2023/06/01 00:16:00;;;;;;;2.97;1.60;;;;;;;;;;5036733;28;20201;-47
2023/06/01 00:18:27;;;;;;;3.08;1.77;;;;;;;;;;5036366;28;20205;-47
2023/06/01 00:20:54;;;;;;;5.03;1.83;;;;;;;;;;5036848;28;20228;-47
2023/06/01 00:23:21;;;;;;;3.22;2.00;;;;;;;;;;5036609;28;20251;-46
2023/06/01 00:25:49;;;;;;;3.05;2.05;;;;;;;;;;5036384;28;20204;-47
2023/06/01 00:28:16;;;;;;;5.40;2.83;;;;;;;;;;5036264;28;20677;-47
2023/06/01 00:30:43;;;;;;;7.65;2.80;;;;;;;;;;5036279;28;20216;-47
2023/06/01 00:33:10;;;;;;;3.92;2.65;;;;;;;;;;5036599;28;20563;-47
2023/06/01 00:35:38;;;;;;;5.25;2.85;;;;;;;;;;5018910;28;20204;-49
2023/06/01 00:38:06;;;;;;;4.95;2.70;;;;;;;;;;5036324;28;20200;-47
2023/06/01 00:40:34;;;;;;;4.82;2.45;;;;;;;;;;5036279;28;20228;-47
2023/06/01 00:43:01;;;;;;;5.68;2.40;;;;;;;;;;5036372;28;20228;-48
2023/06/01 00:45:28;;;;;;;3.92;2.40;;;;;;;;;;5036270;28;20212;-47
2023/06/01 00:47:55;;;;;;;8.40;3.20;;;;;;;;;;5018586;28;20258;-46
2023/06/01 00:50:23;;;;;;;4.22;2.58;;;;;;;;;;5018681;28;20220;-47
2023/06/01 00:52:51;;;;;;;7.68;2.67;;;;;;;;;;5018484;28;20207;-47
2023/06/01 00:55:20;;;;;;;3.10;2.30;;;;;;;;;;5018328;28;20700;-48
2023/06/01 00:57:51;;;;;;;4.97;3.33;;;;;;;;;;5035597;28;20562;-47
2023/06/01 01:00:18;;;;;;;6.82;3.00;;;;;;;;;;5018371;28;20589;-47
2023/06/01 01:02:48;;;;;;;5.53;2.78;;;;;;;;;;5018523;28;20197;-47
2023/06/01 01:05:17;;;;;;;4.80;2.70;;;;;;;;;;5036307;28;20283;-47
2023/06/01 01:08:08;;;;;;;5.60;2.28;;;;;;;;;;5035630;28;20196;-47
2023/06/01 01:10:40;;;;;;;4.13;2.30;;;;;;;;;;5035857;28;20208;-47
2023/06/01 01:13:16;;;;;;;5.25;2.38;;;;;;;;;;5035523;28;20595;-47
2023/06/01 01:15:53;;;;;;;5.10;2.30;;;;;;;;;;5018106;28;20255;-48
2023/06/01 01:18:42;;;;;;;3.55;2.08;;;;;;;;;;4983816;28;20641;-47
2023/06/01 01:24:48;;;;;;;6.53;2.38;;;;;;;;;;4974361;28;20202;-46
2023/06/01 01:27:24;;;;;;;3.97;1.92;;;;;;;;;;4946114;28;20656;-46
2023/06/01 01:29:59;;;;;;;3.28;1.85;;;;;;;;;;4958741;28;20213;-48
2023/06/01 01:32:27;;;;;;;4.88;2.47;;;;;;;;;;4958649;28;20210;-47
2023/06/01 01:34:55;;;;;;;3.85;2.10;;;;;;;;;;4958067;28;20203;-47
2023/06/01 01:37:22;;;;;;;2.65;1.80;;;;;;;;;;4974242;28;20206;-47
2023/06/01 01:39:50;;;;;;;3.90;1.90;;;;;;;;;;4973960;28;20214;-47
2023/06/01 01:42:17;;;;;;;4.22;2.13;;;;;;;;;;4974022;28;20723;-49
2023/06/01 01:44:45;;;;;;;4.57;2.72;;;;;;;;;;4973878;28;20202;-48
2023/06/01 01:47:24;;;;;;;4.95;2.63;;;;;;;;;;4973762;28;20210;-48
2023/06/01 01:49:56;;;;;;;4.78;2.65;;;;;;;;;;4957935;28;20198;-48
2023/06/01 01:52:32;;;;;;;5.18;3.00;;;;;;;;;;4958016;28;20215;-47
2023/06/01 01:55:01;;;;;;;4.18;2.92;;;;;;;;;;4973739;28;20247;-47
2023/06/01 01:57:29;;;;;;;6.60;2.33;;;;;;;;;;4973620;28;20310;-47
2023/06/01 01:59:56;;;;;;;5.32;2.72;;;;;;;;;;4999532;28;20695;-47
2023/06/01 02:02:24;;;;;;;5.80;2.70;;;;;;;;;;5016820;28;20244;-47
2023/06/01 02:04:51;;;;;;;3.78;2.67;;;;;;;;;;5016887;28;20205;-47
2023/06/01 02:07:19;;;;;;;3.88;2.55;;;;;;;;;;5034369;28;20201;-46
2023/06/01 02:09:46;;;;;;;7.07;3.38;;;;;;;;;;5016620;28;20665;-48
2023/06/01 02:12:14;;;;;;;3.75;2.70;;;;;;;;;;5016593;28;20205;-48
2023/06/01 02:14:41;;;;;;;4.68;3.08;;;;;;;;;;5016690;28;20224;-47
2023/06/01 02:17:08;;;;;;;5.07;3.05;;;;;;;;;;5016782;28;20205;-48
2023/06/01 02:19:35;;;;;;;4.47;3.15;;;;;;;;;;5016551;28;20290;-47
2023/06/01 02:22:03;;;;;;;6.07;3.05;;;;;;;;;;5016585;28;20228;-48
2023/06/01 02:24:30;;;;;;;5.60;3.13;;;;;;;;;;5034244;28;20197;-48
2023/06/01 02:26:58;;;;;;;4.45;2.78;;;;;;;;;;5033981;28;20205;-48
2023/06/01 02:29:25;;;;;;;7.65;3.35;;;;;;;;;;5015843;28;20603;-48
2023/06/01 02:31:52;;;;;;;5.00;2.83;;;;;;;;;;5033801;28;20213;-47
2023/06/01 02:34:20;;;;;;;4.07;2.55;;;;;;;;;;5016375;28;20207;-46
2023/06/01 02:36:48;;;;;;;3.45;2.22;;;;;;;;;;5034021;28;20231;-47
2023/06/01 02:39:16;;;;;;;4.10;2.78;;;;;;;;;;5016221;28;20205;-47
2023/06/01 02:41:44;;;;;;;4.43;2.67;;;;;;;;;;5015721;28;20596;-49
2023/06/01 02:44:11;;;;;;;4.50;2.33;;;;;;;;;;5023545;28;20211;-48
2023/06/01 02:46:39;;;;;;;3.72;2.33;;;;;;;;;;5052510;28;20216;-47
2023/06/01 02:49:06;;;;;;;5.78;2.50;;;;;;;;;;5034660;28;20199;-47
2023/06/01 02:51:33;;;;;;;4.43;2.47;;;;;;;;;;5034065;28;20254;-50
2023/06/01 02:54:21;;;;;;;4.60;2.65;;;;;;;;;;5051496;28;20567;-49
2023/06/01 02:56:48;;;;;;;4.68;2.15;;;;;;;;;;5033907;28;20204;-48
2023/06/01 02:59:32;;;;;;;4.20;2.33;;;;;;;;;;5033852;28;20708;-46
2023/06/01 03:02:02;;;;;;;3.60;2.00;;;;;;;;;;5033944;28;20700;-47
2023/06/01 03:04:32;;;;;;;6.07;1.88;;;;;;;;;;5033680;28;20250;-46
2023/06/01 03:07:01;;;;;;;4.72;2.00;;;;;;;;;;5034444;28;20181;-47
2023/06/01 03:10:00;;;;;;;3.60;1.75;;;;;;;;;;5040686;28;20211;-46
2023/06/01 03:12:53;;;;;;;3.45;1.80;;;;;;;;;;5035637;28;20212;-46
2023/06/01 03:15:20;;;;;;;3.88;1.98;;;;;;;;;;5029614;28;20263;-46
2023/06/01 03:17:47;;;;;;;3.22;2.17;;;;;;;;;;5021516;28;20209;-46
2023/06/01 03:20:15;;;;;;;3.28;2.17;;;;;;;;;;5015889;28;20259;-47
2023/06/01 03:22:44;;;;;;;2.88;1.77;;;;;;;;;;5015999;28;20232;-47
2023/06/01 03:25:12;;;;;;;2.97;1.90;;;;;;;;;;5015904;28;20266;-46
2023/06/01 03:27:40;;;;;;;3.25;2.20;;;;;;;;;;5016071;28;20211;-47
2023/06/01 03:30:10;;;;;;;4.97;2.40;;;;;;;;;;5000100;28;20291;-46
2023/06/01 03:32:40;;;;;;;3.22;2.00;;;;;;;;;;5016010;28;20568;-48
2023/06/01 03:35:08;;;;;;;3.42;2.10;;;;;;;;;;5017427;28;20598;-46
2023/06/01 03:37:41;;;;;;;4.25;2.10;;;;;;;;;;5035301;28;20200;-48
2023/06/01 03:40:12;;;;;;;3.47;2.00;;;;;;;;;;5035369;28;20657;-51
2023/06/01 03:42:47;;;;;;;3.92;2.25;;;;;;;;;;5037457;28;20712;-46
2023/06/01 03:45:16;;;;;;;3.88;1.90;;;;;;;;;;5039759;28;20750;-46
2023/06/01 03:47:44;;;;;;;2.67;2.13;;;;;;;;;;5057332;28;20203;-47
2023/06/01 03:50:11;;;;;;;3.35;2.08;;;;;;;;;;5057227;28;20200;-51
2023/06/01 03:52:39;;;;;;;7.88;2.08;;;;;;;;;;5038860;28;20200;-47
2023/06/01 03:55:13;;;;;;;3.03;1.98;;;;;;;;;;5031878;28;20234;-47
2023/06/01 03:57:58;;;;;;;4.40;2.15;;;;;;;;;;5024787;28;20263;-46
2023/06/01 04:00:26;;;;;;;4.45;2.22;;;;;;;;;;5027424;28;20239;-47
2023/06/01 04:02:54;;;;;;;6.82;1.77;;;;;;;;;;5053765;28;20231;-47
2023/06/01 04:05:23;;;;;;;2.10;1.88;;;;;;;;;;5035739;28;20224;-48
2023/06/01 04:07:52;;;;;;;5.20;2.53;;;;;;;;;;5038324;28;20224;-46
2023/06/01 04:10:20;;;;;;;2.85;2.03;;;;;;;;;;5055756;28;20569;-48
2023/06/01 04:12:51;;;;;;;6.95;2.28;;;;;;;;;;5055857;28;20727;-47
2023/06/01 04:15:22;;;;;;;3.45;2.25;;;;;;;;;;5038287;28;20273;-47
2023/06/01 04:17:49;;;;;;;3.42;1.58;;;;;;;;;;5038705;28;20216;-45
2023/06/01 04:20:17;;;;;;;3.17;1.75;;;;;;;;;;5038174;28;20274;-46
2023/06/01 04:22:45;;;;;;;3.22;2.17;;;;;;;;;;5055770;28;20228;-47
2023/06/01 04:25:17;;;;;;;2.67;1.90;;;;;;;;;;5037683;28;20282;-48
2023/06/01 04:27:48;;;;;;;3.78;2.00;;;;;;;;;;5038002;28;20228;-47
2023/06/01 04:30:16;;;;;;;4.43;1.98;;;;;;;;;;5035996;28;20248;-46
2023/06/01 04:32:45;;;;;;;3.58;2.20;;;;;;;;;;5055721;28;20305;-46
2023/06/01 04:35:13;;;;;;;8.55;2.22;;;;;;;;;;5031457;28;20744;-47
2023/06/01 04:37:42;;;;;;;3.03;1.80;;;;;;;;;;5035193;28;20216;-47
2023/06/01 04:40:12;;;;;;;4.30;1.92;;;;;;;;;;5027883;28;20216;-46
2023/06/01 04:42:41;;;;;;;3.28;1.95;;;;;;;;;;5026406;28;20274;-47
2023/06/01 04:45:09;;;;;;;4.38;2.47;;;;;;;;;;5034994;28;20244;-46
2023/06/01 04:47:39;;;;;;;2.92;2.10;;;;;;;;;;5031390;28;20224;-47
2023/06/01 04:50:12;;;;;;;4.20;2.33;;;;;;;;;;5026579;28;20216;-46
2023/06/01 04:52:41;;;;;;;5.40;1.92;;;;;;;;;;5027487;28;20213;-47
2023/06/01 04:55:09;;;;;;;4.07;2.20;;;;;;;;;;5045695;28;20261;-48
2023/06/01 04:57:38;;;;;;;3.60;2.28;;;;;;;;;;5045075;28;20216;-47
2023/06/01 05:00:11;;;;;;;5.32;2.20;;;;;;;;;;5023891;28;20227;-48
2023/06/01 05:02:40;;;;;;;6.82;1.92;;;;;;;;;;5030621;28;20236;-47
2023/06/01 05:05:07;;;;;;;3.53;1.95;;;;;;;;;;5042869;28;20717;-46
2023/06/01 05:07:41;;;;;;;3.00;1.90;;;;;;;;;;5049972;28;20700;-47
2023/06/01 05:10:11;;;;;;;5.32;2.13;;;;;;;;;;5035686;28;20743;-47
2023/06/01 05:12:43;;;;;;;3.78;1.95;;;;;;;;;;5035802;28;20224;-47
2023/06/01 05:15:11;;;;;;;3.97;2.20;;;;;;;;;;5035740;28;20251;-47
2023/06/01 05:17:39;;;;;;;3.97;2.00;;;;;;;;;;5035482;28;20236;-47
2023/06/01 05:20:17;;;;;;;3.10;2.00;;;;;;;;;;5049422;28;20254;-49
2023/06/01 05:22:51;;;;;;;3.05;1.85;;;;;;;;;;5028029;28;20276;-52
2023/06/01 05:25:19;;;;;;;3.17;1.67;;;;;;;;;;5026283;28;20240;-51
2023/06/01 05:27:46;;;;;;;2.63;1.67;;;;;;;;;;5023932;28;20231;-46
2023/06/01 05:30:13;;;;;;;4.05;1.65;;;;;;;;;;5045157;28;20227;-47
2023/06/01 05:32:43;;;;;;;2.33;1.45;;;;;;;;;;5024491;28;20570;-47
2023/06/01 05:35:13;;;;;;;2.40;1.40;;;;;;;;;;5029833;28;20212;-47
2023/06/01 05:37:55;;;;;;;2.72;1.88;;;;;;;;;;5030857;28;20217;-48
2023/06/01 05:40:22;;;;;;;3.22;1.63;;;;;;;;;;5025842;28;20235;-49
2023/06/01 05:42:50;;;;;;;2.38;1.52;;;;;;;;;;5042463;28;20556;-47
2023/06/01 05:45:17;;;;;;;2.72;1.23;;;;;;;;;;5026483;28;20216;-47
2023/06/01 05:47:45;;;;;;;4.55;1.65;;;;;;;;;;5032828;28;20232;-47
2023/06/01 05:50:12;;;;;;;2.72;1.70;;;;;;;;;;5033036;28;20323;-46
2023/06/01 05:52:42;;;;;;;4.60;1.95;;;;;;;;;;5033522;28;20232;-46
2023/06/01 05:55:09;;;;;;;3.30;2.00;;;;;;;;;;5032582;28;20213;-47
2023/06/01 05:57:37;;;;;;;2.38;1.67;;;;;;;;;;5033231;28;20205;-46
2023/06/01 06:00:12;;;;;;;4.35;1.77;;;;;;;;;;5033687;28;20243;-46
2023/06/01 06:02:43;;;;;;;3.38;1.92;;;;;;;;;;5034603;28;20230;-47
2023/06/01 06:05:11;;;;;;;2.20;1.45;;;;;;;;;;5034011;28;20558;-46
2023/06/01 06:07:38;;;;;;;3.63;1.90;;;;;;;;;;5034678;28;20204;-47
2023/06/01 06:10:06;;;;;;;2.00;1.48;;;;;;;;;;5034478;28;20212;-47
2023/06/01 06:12:33;;;;;;;2.10;1.27;;;;;;;;;;5034764;28;20209;-46
2023/06/01 06:15:01;;;;;;;3.92;1.65;;;;;;;;;;5034711;28;20201;-46
2023/06/01 06:17:28;;;;;;;3.58;1.40;;;;;;;;;;5034715;28;20600;-46
2023/06/01 06:19:55;;;;;;;2.78;1.30;;;;;;;;;;5034587;28;20235;-46
2023/06/01 06:22:22;;;;;;;3.63;1.50;;;;;;;;;;5034217;28;20224;-47
2023/06/01 06:24:49;;;;;;;3.92;1.40;;;;;;;;;;5034424;28;20200;-46
2023/06/01 06:27:17;;;;;;;3.20;1.48;;;;;;;;;;5034215;28;20212;-47
2023/06/01 06:29:44;;;;;;;2.58;1.50;;;;;;;;;;5034327;28;20204;-46
2023/06/01 06:32:11;;;;;;;5.70;1.58;;;;;;;;;;5034133;28;20213;-46
2023/06/01 06:34:38;;;;;;;5.78;1.60;;;;;;;;;;5034015;28;20574;-46
2023/06/01 06:37:06;;;;;;;1.88;1.10;;;;;;;;;;5034237;28;20205;-47
2023/06/01 06:39:33;;;;;;;2.58;1.42;;;;;;;;;;5034298;28;20207;-47
2023/06/01 06:42:02;;;;;;;2.00;1.40;;;;;;;;;;5033991;28;20237;-46
2023/06/01 06:44:29;;;;;;;3.53;1.30;;;;;;;;;;5034035;28;20205;-46
2023/06/01 06:47:00;;;;;;;2.63;1.40;;;;;;;;;;5033891;28;20204;-46
2023/06/01 06:49:28;;;;;;;2.90;1.45;;;;;;;;;;5033834;28;20561;-47
2023/06/01 06:51:56;;;;;;;2.97;1.33;;;;;;;;;;5033959;28;20263;-46
2023/06/01 06:54:23;;;;;;;4.57;1.23;;;;;;;;;;5033714;28;20563;-46
2023/06/01 06:56:50;;;;;;;2.38;1.23;;;;;;;;;;5033884;28;20224;-46
2023/06/01 06:59:17;;;;;;;2.60;1.33;;;;;;;;;;5033592;28;20654;-47
2023/06/01 07:01:44;;;;;;;1.80;1.20;;;;;;;;;;5033742;28;20599;-47
2023/06/01 07:04:11;;;;;;;2.03;1.13;;;;;;;;;;5033432;28;20232;-46
2023/06/01 07:06:39;;;;;;;3.83;1.30;;;;;;;;;;5033772;28;20208;-46
2023/06/01 07:09:06;;;;;;;2.60;0.93;;;;;;;;;;5033414;28;20203;-46
2023/06/01 07:11:33;;;;;;;2.70;1.17;;;;;;;;;;5033556;28;20200;-46
2023/06/01 07:14:00;;;;;;;2.15;1.08;;;;;;;;;;5033459;28;20211;-46
2023/06/01 07:16:29;;;;;;;1.55;1.10;;;;;;;;;;5033711;28;20205;-47
2023/06/01 07:18:56;;;;;;;2.97;1.05;;;;;;;;;;5033483;28;20307;-47
2023/06/01 07:21:23;;;;;;;2.85;1.33;;;;;;;;;;5033601;28;20207;-46
2023/06/01 07:23:50;;;;;;;2.47;1.20;;;;;;;;;;5033555;28;20224;-47
2023/06/01 07:26:18;;;;;;;1.45;0.93;;;;;;;;;;5033470;28;20211;-47
2023/06/01 07:28:45;;;;;;;1.35;1.10;;;;;;;;;;5033395;28;20291;-47
2023/06/01 07:31:12;;;;;;;3.42;1.10;;;;;;;;;;5033444;28;20579;-46
2023/06/01 07:33:40;;;;;;;3.58;1.40;;;;;;;;;;5033512;28;20216;-46
2023/06/01 07:36:08;;;;;;;2.15;1.10;;;;;;;;;;5033541;28;20204;-47
2023/06/01 07:38:35;;;;;;;1.70;0.95;;;;;;;;;;5033446;28;20204;-46
2023/06/01 07:41:02;;;;;;;3.17;1.08;;;;;;;;;;5033183;28;20212;-47
2023/06/01 07:43:29;;;;;;;1.48;1.10;;;;;;;;;;5033280;28;20565;-48
2023/06/01 07:45:57;;;;;;;7.30;1.20;;;;;;;;;;5033398;28;20208;-47
2023/06/01 07:48:25;;;;;;;1.48;1.05;;;;;;;;;;5033479;28;20235;-47
2023/06/01 07:50:53;;;;;;;1.40;1.08;;;;;;;;;;5033614;28;20201;-47
2023/06/01 07:53:20;;;;;;;2.55;1.23;;;;;;;;;;5041372;28;20204;-46
2023/06/01 07:55:50;;;;;;;2.15;0.90;;;;;;;;;;5052939;28;20209;-49
2023/06/01 07:58:17;;;;;;;2.53;1.20;;;;;;;;;;5052144;28;20204;-47
2023/06/01 08:00:44;;;;;;;1.80;1.17;;;;;;;;;;5052362;28;20204;-48
2023/06/01 08:03:11;;;;;;;1.98;0.95;;;;;;;;;;5052037;28;20240;-47
2023/06/01 08:05:41;;;;;;;2.60;0.93;;;;;;;;;;5052265;28;20216;-46
2023/06/01 08:08:08;;;;;;;3.95;1.00;;;;;;;;;;5052718;28;20251;-47
2023/06/01 08:10:39;;;;;;;3.40;1.33;;;;;;;;;;5052816;28;20262;-47
2023/06/01 08:13:07;;;;;;;1.48;0.95;;;;;;;;;;5053189;28;20208;-47
2023/06/01 08:15:36;;;;;;;3.60;1.27;;;;;;;;;;5053040;28;20212;-48
2023/06/01 08:18:06;;;;;;;2.28;1.30;;;;;;;;;;5052730;28;20573;-47
2023/06/01 08:20:33;;;;;;;8.43;1.60;;;;;;;;;;5052646;28;20200;-47
2023/06/01 08:23:02;;;;;;;2.72;1.30;;;;;;;;;;5052941;28;20224;-46
2023/06/01 08:25:29;;;;;;;2.65;1.27;;;;;;;;;;5052895;28;20204;-47
2023/06/01 08:27:57;;;;;;;3.88;1.23;;;;;;;;;;5053499;28;20200;-47
2023/06/01 08:30:25;;;;;;;2.55;1.27;;;;;;;;;;5056648;28;20212;-46
2023/06/01 08:32:52;;;;;;;1.88;1.00;;;;;;;;;;5056583;28;20227;-47
2023/06/01 08:35:20;;;;;;;2.30;1.10;;;;;;;;;;5056485;28;20206;-46
2023/06/01 08:37:47;;;;;;;4.10;1.48;;;;;;;;;;5056312;28;20208;-46
2023/06/01 08:40:15;;;;;;;3.30;1.17;;;;;;;;;;5056305;28;20204;-46
2023/06/01 08:42:45;;;;;;;3.90;1.15;;;;;;;;;;5056200;28;20322;-46
2023/06/01 08:45:13;;;;;;;3.15;1.52;;;;;;;;;;5056526;28;20208;-47
2023/06/01 08:47:41;;;;;;;2.00;1.00;;;;;;;;;;5055963;28;20657;-46
2023/06/01 08:50:11;;;;;;;2.63;1.30;;;;;;;;;;5056081;28;20252;-47
2023/06/01 08:52:41;;;;;;;6.82;1.60;;;;;;;;;;5055993;28;20310;-47
2023/06/01 08:55:08;;;;;;;3.90;1.40;;;;;;;;;;5056051;28;20219;-47
2023/06/01 08:57:35;;;;;;;2.30;1.38;;;;;;;;;;5055972;28;20238;-48
2023/06/01 09:00:04;;;;;;;6.78;1.67;;;;;;;;;;5038425;28;20229;-47
2023/06/01 09:02:31;;;;;;;2.95;1.30;;;;;;;;;;5055092;28;20196;-47
2023/06/01 09:04:59;;;;;;;3.28;1.30;;;;;;;;;;5055888;28;20567;-47
2023/06/01 09:07:26;;;;;;;2.92;1.20;;;;;;;;;;5055826;28;20250;-47
2023/06/01 09:09:53;;;;;;;1.77;1.10;;;;;;;;;;5055891;28;20207;-47
2023/06/01 09:12:25;;;;;;;4.88;1.40;;;;;;;;;;5055800;28;20200;-46
2023/06/01 09:15:08;;;;;;;2.70;1.20;;;;;;;;;;5055448;28;20669;-46
2023/06/01 09:17:35;;;;;;;3.33;1.38;;;;;;;;;;5055416;28;20322;-46
2023/06/01 09:20:04;;;;;;;1.60;1.17;;;;;;;;;;5055665;28;20657;-48
2023/06/01 09:22:45;;;;;;;1.08;0.85;;;;;;;;;;5055207;28;20228;-47
2023/06/01 09:25:13;;;;;;;3.08;1.30;;;;;;;;;;5055461;28;20208;-47
2023/06/01 09:27:48;;;;;;;1.95;1.00;;;;;;;;;;5055495;28;20210;-48
2023/06/01 09:30:17;;;;;;;7.07;1.75;;;;;;;;;;5037781;28;20199;-47
2023/06/01 09:32:50;;;;;;;3.33;1.10;;;;;;;;;;5055375;28;20196;-46
2023/06/01 09:35:46;;;;;;;4.50;1.10;;;;;;;;;;5055341;28;20200;-47
2023/06/01 09:38:25;;;;;;;4.57;1.10;;;;;;;;;;5055053;28;20207;-47
2023/06/01 09:41:04;;;;;;;2.67;1.05;;;;;;;;;;5054196;28;20192;-46
2023/06/01 09:43:36;;;;;;;2.83;1.30;;;;;;;;;;5055443;28;20242;-47
2023/06/01 09:46:06;;;;;;;5.15;1.00;;;;;;;;;;5055365;28;20204;-48
2023/06/01 09:48:33;;;;;;;1.75;1.10;;;;;;;;;;5054662;28;20200;-47
2023/06/01 09:51:00;;;;;;;2.70;1.20;;;;;;;;;;5034884;28;20566;-47
2023/06/01 09:53:40;;;;;;;2.60;1.30;;;;;;;;;;5034774;28;20211;-47
2023/06/01 09:56:07;;;;;;;3.38;1.10;;;;;;;;;;5034892;28;20215;-46
2023/06/01 09:58:39;;;;;;;1.98;1.23;;;;;;;;;;5034885;28;20201;-47
2023/06/01 10:01:08;;;;;;;4.57;1.33;;;;;;;;;;5034794;28;20577;-47
2023/06/01 10:03:41;;;;;;;1.25;1.02;;;;;;;;;;5034814;28;20259;-46
2023/06/01 10:06:12;;;;;;;2.90;1.25;;;;;;;;;;5034875;28;20208;-47
2023/06/01 10:08:41;;;;;;;2.20;0.93;;;;;;;;;;5017311;28;20609;-46
2023/06/01 10:11:08;;;;;;;2.90;0.98;;;;;;;;;;5034802;28;20204;-46
2023/06/01 10:13:36;;;;;;;5.15;0.80;;;;;;;;;;5017154;28;20205;-47
2023/06/01 10:16:03;;;;;;;2.38;1.00;;;;;;;;;;5034296;28;20205;-46
2023/06/01 10:18:32;;;;;;;2.30;1.00;;;;;;;;;;5017292;28;20212;-48
2023/06/01 10:21:01;;;;;;;2.63;1.00;;;;;;;;;;5034496;28;20205;-47
2023/06/01 10:23:28;;;;;;;3.03;1.35;;;;;;;;;;5034308;28;20228;-47
2023/06/01 10:26:00;;;;;;;4.07;1.10;;;;;;;;;;5034485;28;20208;-47
2023/06/01 10:28:30;;;;;;;1.65;1.15;;;;;;;;;;5017144;28;20259;-47
2023/06/01 10:31:32;;;;;;;2.15;1.10;;;;;;;;;;5034339;28;20200;-47
2023/06/01 10:33:59;;;;;;;1.88;1.35;;;;;;;;;;5034080;28;20243;-47
2023/06/01 10:36:51;;;;;;;1.05;0.82;;;;;;;;;;5034093;28;20681;-47
2023/06/01 10:39:26;;;;;;;3.70;1.10;;;;;;;;;;5034183;28;20201;-47
2023/06/01 10:41:57;;;;;;;4.00;1.30;;;;;;;;;;5033803;28;20215;-47
2023/06/01 10:44:39;;;;;;;1.55;0.80;;;;;;;;;;5034087;28;20300;-47
2023/06/01 10:47:10;;;;;;;2.60;1.10;;;;;;;;;;5033871;28;20200;-47
2023/06/01 10:49:49;;;;;;;2.50;0.98;;;;;;;;;;5033821;28;20676;-46
2023/06/01 10:52:33;;;;;;;1.60;0.88;;;;;;;;;;5033566;28;20215;-46
2023/06/01 10:55:05;;;;;;;3.65;0.82;;;;;;;;;;5033842;28;20295;-47
2023/06/01 10:57:34;;;;;;;1.73;0.77;;;;;;;;;;5033797;28;20674;-46
2023/06/01 11:00:29;;;;;;;2.33;0.90;;;;;;;;;;5033681;28;20208;-46
2023/06/01 11:02:59;;;;;;;0.70;0.70;;;;;;;;;;5033883;28;20200;-48
2023/06/01 11:05:47;;;;;;;2.72;0.93;;;;;;;;;;5033638;28;20204;-49
2023/06/01 11:08:17;;;;;;;1.42;0.93;;;;;;;;;;5033768;28;20625;-47
2023/06/01 11:10:59;;;;;;;2.15;0.85;;;;;;;;;;5033725;28;20603;-47
2023/06/01 11:13:35;;;;;;;3.40;1.10;;;;;;;;;;5033629;28;20285;-46
2023/06/01 11:16:09;;;;;;;1.73;0.82;;;;;;;;;;5033832;28;20246;-48
2023/06/01 11:18:41;;;;;;;2.92;0.98;;;;;;;;;;5033702;28;20212;-47
2023/06/01 11:21:18;;;;;;;1.48;0.80;;;;;;;;;;5033411;28;20200;-46
2023/06/01 11:23:47;;;;;;;1.17;0.80;;;;;;;;;;5033462;28;20236;-47
2023/06/01 11:26:16;;;;;;;1.52;0.95;;;;;;;;;;5033474;28;20563;-47
2023/06/01 11:28:44;;;;;;;1.42;1.00;;;;;;;;;;5033323;28;20657;-48
2023/06/01 11:31:13;;;;;;;1.10;0.88;;;;;;;;;;5033775;28;20205;-47
2023/06/01 11:33:48;;;;;;;2.13;1.00;;;;;;;;;;5033465;28;20209;-47
2023/06/01 11:36:16;;;;;;;1.52;0.82;;;;;;;;;;5033410;28;20209;-47
2023/06/01 11:38:44;;;;;;;2.45;0.90;;;;;;;;;;5033505;28;20224;-47
2023/06/01 11:41:11;;;;;;;6.68;1.10;;;;;;;;;;5016021;28;20216;-47
2023/06/01 11:43:38;;;;;;;0.95;0.75;;;;;;;;;;5033227;28;20240;-50
2023/06/01 11:46:07;;;;;;;1.55;0.85;;;;;;;;;;5033168;28;20213;-49
2023/06/01 11:49:04;;;;;;;1.33;0.95;;;;;;;;;;5033340;28;20205;-47
2023/06/01 11:51:36;;;;;;;2.58;1.30;;;;;;;;;;5033729;28;20185;-47
2023/06/01 11:54:04;;;;;;;1.48;0.88;;;;;;;;;;5015731;28;20677;-48
2023/06/01 11:56:34;;;;;;;2.03;0.80;;;;;;;;;;5033195;28;20665;-47
2023/06/01 11:59:08;;;;;;;2.13;1.25;;;;;;;;;;5033395;28;20192;-50
2023/06/01 12:01:38;;;;;;;1.25;0.75;;;;;;;;;;5033371;28;20189;-49
2023/06/01 12:04:08;;;;;;;2.30;1.05;;;;;;;;;;5035649;28;20294;-48
2023/06/01 12:06:35;;;;;;;3.40;1.00;;;;;;;;;;5037076;28;20295;-47
2023/06/01 12:09:03;;;;;;;4.13;0.90;;;;;;;;;;5036698;28;20673;-48
2023/06/01 12:11:32;;;;;;;2.40;1.05;;;;;;;;;;5036694;28;20307;-48
2023/06/01 12:13:59;;;;;;;1.33;0.73;;;;;;;;;;5037068;28;20209;-48
2023/06/01 12:16:56;;;;;;;1.83;1.00;;;;;;;;;;5036954;28;20255;-48
2023/06/01 12:19:25;;;;;;;1.73;0.75;;;;;;;;;;5036895;28;20204;-48
2023/06/01 12:21:55;;;;;;;6.82;0.93;;;;;;;;;;5049298;28;20204;-48
2023/06/01 12:24:28;;;;;;;1.85;1.10;;;;;;;;;;5051441;28;20579;-49
2023/06/01 12:26:57;;;;;;;4.63;0.80;;;;;;;;;;5044562;28;20197;-47
2023/06/01 12:29:34;;;;;;;1.58;1.02;;;;;;;;;;5044760;28;20193;-47
2023/06/01 12:32:02;;;;;;;1.77;1.05;;;;;;;;;;5047766;28;20196;-49
2023/06/01 12:34:30;;;;;;;1.67;0.90;;;;;;;;;;5050050;28;20195;-47
2023/06/01 12:36:57;;;;;;;1.50;0.90;;;;;;;;;;5054602;28;20204;-50
2023/06/01 12:39:37;;;;;;;3.08;1.00;;;;;;;;;;5035080;28;20211;-49
2023/06/01 12:42:08;;;;;;;1.77;1.00;;;;;;;;;;5043022;28;20224;-48
2023/06/01 12:44:36;;;;;;;8.20;0.98;;;;;;;;;;5036499;28;20225;-47
2023/06/01 12:47:06;;;;;;;2.20;0.93;;;;;;;;;;5020229;28;20251;-49
2023/06/01 12:49:33;;;;;;;1.67;0.93;;;;;;;;;;5038196;28;20206;-48
2023/06/01 12:52:01;;;;;;;1.63;0.98;;;;;;;;;;5030117;28;20232;-49
2023/06/01 12:54:29;;;;;;;0.77;0.73;;;;;;;;;;5046595;28;20228;-49
2023/06/01 12:56:56;;;;;;;2.15;1.17;;;;;;;;;;5046797;28;20212;-48
2023/06/01 12:59:23;;;;;;;3.38;1.00;;;;;;;;;;5044555;28;20224;-49
2023/06/01 13:01:50;;;;;;;0.98;0.85;;;;;;;;;;5047128;28;20303;-47
2023/06/01 13:04:18;;;;;;;2.28;1.05;;;;;;;;;;5041989;28;20642;-49
2023/06/01 13:06:45;;;;;;;2.63;0.82;;;;;;;;;;5049100;28;20692;-47
2023/06/01 13:09:13;;;;;;;2.78;1.08;;;;;;;;;;5054955;28;20590;-48
2023/06/01 13:11:41;;;;;;;2.15;1.23;;;;;;;;;;5051748;28;20216;-49
2023/06/01 13:14:08;;;;;;;1.63;1.13;;;;;;;;;;5039291;28;20722;-47
2023/06/01 13:16:35;;;;;;;1.20;1.00;;;;;;;;;;5034939;28;20328;-48
2023/06/01 13:19:04;;;;;;;2.83;1.00;;;;;;;;;;5034553;28;20225;-47
2023/06/01 13:21:33;;;;;;;1.73;1.13;;;;;;;;;;5034308;28;20242;-47
2023/06/01 13:24:01;;;;;;;3.75;1.25;;;;;;;;;;5034594;28;20236;-47
2023/06/01 13:26:28;;;;;;;1.63;1.05;;;;;;;;;;5015764;28;20228;-48
2023/06/01 13:28:55;;;;;;;1.38;1.27;;;;;;;;;;5033809;28;20217;-47
2023/06/01 13:31:22;;;;;;;2.22;0.85;;;;;;;;;;5034044;28;20263;-48
2023/06/01 13:33:50;;;;;;;1.33;1.02;;;;;;;;;;5034397;28;20229;-47
2023/06/01 13:36:17;;;;;;;1.92;1.10;;;;;;;;;;5045283;28;20708;-48
2023/06/01 13:38:44;;;;;;;2.67;0.95;;;;;;;;;;5049524;28;20269;-48
2023/06/01 13:41:11;;;;;;;1.75;1.00;;;;;;;;;;5046370;28;20234;-48
2023/06/01 13:43:39;;;;;;;0.93;0.80;;;;;;;;;;5053344;28;20227;-46
2023/06/01 13:46:09;;;;;;;2.22;1.10;;;;;;;;;;5054244;28;20224;-46
2023/06/01 13:48:36;;;;;;;2.75;1.00;;;;;;;;;;5054489;28;20704;-46
2023/06/01 13:51:05;;;;;;;2.95;1.30;;;;;;;;;;5048070;28;21732;-47
2023/06/01 13:53:33;;;;;;;2.05;1.15;;;;;;;;;;5043250;28;20212;-49
2023/06/01 13:56:00;;;;;;;3.55;1.30;;;;;;;;;;5042851;28;20220;-49
2023/06/01 13:58:28;;;;;;;2.08;1.25;;;;;;;;;;5044178;28;20573;-48
2023/06/01 14:00:55;;;;;;;3.58;1.23;;;;;;;;;;5043000;28;20248;-53
2023/06/01 14:03:22;;;;;;;1.95;1.02;;;;;;;;;;5030268;28;20224;-50
2023/06/01 14:05:50;;;;;;;3.17;1.40;;;;;;;;;;5041878;28;20236;-49
2023/06/01 14:08:23;;;;;;;2.10;1.10;;;;;;;;;;5044794;28;20219;-49
2023/06/01 14:10:50;;;;;;;2.40;1.00;;;;;;;;;;5049020;28;20289;-46
2023/06/01 14:13:18;;;;;;;3.60;1.50;;;;;;;;;;5040478;28;20219;-49
2023/06/01 14:15:45;;;;;;;1.77;1.20;;;;;;;;;;5044117;28;20295;-49
2023/06/01 14:18:12;;;;;;;3.70;1.30;;;;;;;;;;5046269;28;20826;-49
2023/06/01 14:20:40;;;;;;;5.95;1.20;;;;;;;;;;5039310;28;20269;-49
2023/06/01 14:23:09;;;;;;;1.63;0.85;;;;;;;;;;5041415;28;20281;-49
2023/06/01 14:25:36;;;;;;;1.55;1.00;;;;;;;;;;5046232;28;20232;-51
2023/06/01 14:28:03;;;;;;;1.77;0.98;;;;;;;;;;5041489;28;20212;-47
2023/06/01 14:30:31;;;;;;;1.88;0.85;;;;;;;;;;5042340;28;20302;-49
2023/06/01 14:32:58;;;;;;;2.10;1.02;;;;;;;;;;5044139;28;20731;-50
2023/06/01 14:35:26;;;;;;;2.00;1.13;;;;;;;;;;5043252;28;20277;-51
2023/06/01 14:37:55;;;;;;;4.43;1.40;;;;;;;;;;5026260;28;20228;-50
2023/06/01 14:40:22;;;;;;;9.70;2.30;;;;;;;;;;5042550;28;20228;-51
2023/06/01 14:42:50;;;;;;;7.70;2.97;;;;;;;;;;5046434;28;20781;-49
2023/06/01 14:45:19;;;;;;;2.60;1.30;;;;;;;;;;5026463;28;20243;-50
2023/06/01 14:47:46;;;;;;;2.83;1.40;;;;;;;;;;5036393;28;20223;-52
2023/06/01 14:50:13;;;;;;;2.00;0.90;;;;;;;;;;5040714;28;20219;-50
2023/06/01 14:52:41;;;;;;;2.75;1.27;;;;;;;;;;5039684;28;20295;-54
2023/06/01 14:55:08;;;;;;;5.53;1.40;;;;;;;;;;5042054;28;20633;-52
2023/06/01 14:57:35;;;;;;;1.35;1.00;;;;;;;;;;5024076;28;20211;-50
2023/06/01 15:00:04;;;;;;;3.30;1.20;;;;;;;;;;5040384;28;20303;-49
2023/06/01 15:02:32;;;;;;;1.10;0.75;;;;;;;;;;5039700;28;20212;-50